Time;durP1;ratioP1;P1;durP2;ratioP2;P2;SDS_P1;SDS_P2;PMS_P1;PMS_P2;Temp;Humidity;BMP_temperature;BMP_pressure;BME280_temperature;BME280_humidity;BME280_pressure;Samples;Min_cycle;Max_cycle;Signal;HPM_P1;HPM_P2
2022/04/20 00:00:36;;;;;;;12.25;5.40;;;;;;;;;;5055373;28;20044;-78
2022/04/20 00:03:03;;;;;;;8.68;5.00;;;;;;;;;;5072099;28;20036;-78
2022/04/20 00:05:33;;;;;;;9.23;4.72;;;;;;;;;;5071866;28;20071;-78
2022/04/20 00:07:59;;;;;;;10.50;4.63;;;;;;;;;;5072410;28;20369;-78
2022/04/20 00:10:26;;;;;;;8.48;4.75;;;;;;;;;;5073403;28;20123;-79
2022/04/20 00:12:52;;;;;;;10.43;5.70;;;;;;;;;;5072069;28;20455;-78
2022/04/20 00:15:18;;;;;;;11.05;4.65;;;;;;;;;;5073718;28;20037;-79
2022/04/20 00:17:44;;;;;;;11.07;4.75;;;;;;;;;;5070786;28;20039;-79
2022/04/20 00:20:10;;;;;;;8.98;4.50;;;;;;;;;;5072183;28;20468;-78
2022/04/20 00:22:36;;;;;;;9.57;5.45;;;;;;;;;;5072290;28;20487;-78
2022/04/20 00:25:03;;;;;;;11.18;4.68;;;;;;;;;;5072807;28;20373;-78
2022/04/20 00:27:32;;;;;;;9.70;4.75;;;;;;;;;;5073714;28;20036;-78
2022/04/20 00:29:58;;;;;;;8.63;4.75;;;;;;;;;;5071780;28;20090;-77
2022/04/20 00:32:24;;;;;;;8.32;4.75;;;;;;;;;;5071168;28;20044;-77
2022/04/20 00:34:50;;;;;;;8.68;4.03;;;;;;;;;;5072343;28;20090;-77
2022/04/20 00:37:16;;;;;;;8.77;4.75;;;;;;;;;;5073400;28;20032;-78
2022/04/20 00:39:42;;;;;;;6.95;4.38;;;;;;;;;;5071970;28;20033;-78
2022/04/20 00:42:09;;;;;;;7.78;4.63;;;;;;;;;;5073344;28;20040;-78
2022/04/20 00:44:35;;;;;;;8.70;4.80;;;;;;;;;;5073217;28;20032;-78
2022/04/20 00:47:01;;;;;;;9.75;4.50;;;;;;;;;;5072313;28;20083;-76
2022/04/20 00:49:28;;;;;;;10.10;4.90;;;;;;;;;;5072640;28;20037;-76
2022/04/20 00:51:58;;;;;;;7.53;4.70;;;;;;;;;;5072256;28;20094;-76
2022/04/20 00:54:24;;;;;;;8.25;4.40;;;;;;;;;;5070562;28;20056;-75
2022/04/20 00:56:51;;;;;;;10.00;4.38;;;;;;;;;;5070640;28;20055;-76
2022/04/20 00:59:20;;;;;;;7.78;4.60;;;;;;;;;;5072351;28;20032;-75
2022/04/20 01:01:46;;;;;;;7.20;4.25;;;;;;;;;;5072241;28;20481;-76
2022/04/20 01:04:12;;;;;;;9.55;4.35;;;;;;;;;;5072223;28;20377;-75
2022/04/20 01:06:38;;;;;;;7.65;4.47;;;;;;;;;;5070771;28;20043;-76
2022/04/20 01:09:04;;;;;;;9.48;4.50;;;;;;;;;;5072665;28;20037;-76
2022/04/20 01:11:31;;;;;;;8.00;4.70;;;;;;;;;;5072307;28;20078;-76
2022/04/20 01:13:57;;;;;;;11.63;4.45;;;;;;;;;;5068471;28;20374;-76
2022/04/20 01:16:23;;;;;;;7.75;4.50;;;;;;;;;;5070856;28;20041;-76
2022/04/20 01:18:50;;;;;;;8.32;4.43;;;;;;;;;;5053983;28;20093;-76
2022/04/20 01:21:16;;;;;;;8.52;4.53;;;;;;;;;;5070757;28;20040;-76
2022/04/20 01:23:42;;;;;;;8.90;4.22;;;;;;;;;;5070613;28;20036;-76
2022/04/20 01:26:09;;;;;;;8.85;4.53;;;;;;;;;;5070722;28;20039;-76
2022/04/20 01:28:37;;;;;;;9.23;4.60;;;;;;;;;;5053972;28;20040;-76
2022/04/20 01:31:03;;;;;;;7.80;4.28;;;;;;;;;;5071877;28;20106;-76
2022/04/20 01:33:29;;;;;;;8.77;4.72;;;;;;;;;;5070399;28;20044;-76
2022/04/20 01:35:55;;;;;;;9.63;4.63;;;;;;;;;;5070378;28;20449;-76
2022/04/20 01:38:21;;;;;;;8.32;4.13;;;;;;;;;;5071707;28;20050;-75
2022/04/20 01:40:48;;;;;;;7.07;4.15;;;;;;;;;;5067739;28;20040;-76
2022/04/20 01:43:14;;;;;;;8.93;4.55;;;;;;;;;;5070675;28;20076;-75
2022/04/20 01:45:40;;;;;;;8.00;4.18;;;;;;;;;;5070137;28;20040;-75
2022/04/20 01:48:07;;;;;;;6.82;4.15;;;;;;;;;;5071632;28;20082;-76
2022/04/20 01:50:33;;;;;;;8.55;4.55;;;;;;;;;;5070141;28;20115;-75
2022/04/20 01:52:59;;;;;;;8.85;4.78;;;;;;;;;;5070676;28;20028;-76
2022/04/20 01:55:26;;;;;;;7.78;4.88;;;;;;;;;;5053266;28;20056;-76
2022/04/20 01:57:53;;;;;;;8.10;4.63;;;;;;;;;;5071080;28;20090;-76
2022/04/20 02:00:19;;;;;;;10.02;4.63;;;;;;;;;;5071545;28;20048;-75
2022/04/20 02:02:45;;;;;;;8.20;4.55;;;;;;;;;;5068736;28;20675;-79
2022/04/20 02:05:12;;;;;;;8.60;4.70;;;;;;;;;;5069924;28;20037;-79
2022/04/20 02:07:39;;;;;;;9.40;4.70;;;;;;;;;;5070863;28;20463;-76
2022/04/20 02:10:06;;;;;;;10.45;4.63;;;;;;;;;;5070420;28;20094;-75
2022/04/20 02:12:33;;;;;;;8.57;4.47;;;;;;;;;;5071133;28;20472;-76
2022/04/20 02:14:59;;;;;;;6.93;4.22;;;;;;;;;;5071419;28;20051;-76
2022/04/20 02:17:25;;;;;;;9.98;5.05;;;;;;;;;;5070965;28;20037;-76
2022/04/20 02:19:51;;;;;;;7.40;4.43;;;;;;;;;;5069569;28;20041;-76
2022/04/20 02:22:17;;;;;;;7.40;4.70;;;;;;;;;;5069747;28;20047;-75
2022/04/20 02:24:43;;;;;;;7.18;4.43;;;;;;;;;;5069164;28;20040;-77
2022/04/20 02:27:10;;;;;;;8.70;4.90;;;;;;;;;;5069872;28;20040;-75
2022/04/20 02:29:36;;;;;;;6.97;4.50;;;;;;;;;;5069594;28;20450;-79
2022/04/20 02:32:02;;;;;;;8.73;4.93;;;;;;;;;;5069224;28;20059;-79
2022/04/20 02:34:28;;;;;;;7.68;4.57;;;;;;;;;;5069032;28;20041;-79
2022/04/20 02:36:54;;;;;;;8.85;4.22;;;;;;;;;;5068985;28;20036;-79
2022/04/20 02:39:20;;;;;;;7.70;4.60;;;;;;;;;;5052612;28;20041;-79
2022/04/20 02:41:47;;;;;;;8.20;5.00;;;;;;;;;;5052280;28;20035;-78
2022/04/20 02:44:14;;;;;;;10.70;5.20;;;;;;;;;;5070715;28;20385;-79
2022/04/20 02:46:40;;;;;;;8.52;5.00;;;;;;;;;;5068982;28;20115;-79
2022/04/20 02:49:06;;;;;;;10.18;5.05;;;;;;;;;;5070542;28;20064;-78
2022/04/20 02:51:32;;;;;;;9.18;5.05;;;;;;;;;;5052379;28;20097;-78
2022/04/20 02:53:58;;;;;;;10.07;5.15;;;;;;;;;;5052393;28;20029;-78
2022/04/20 02:56:24;;;;;;;13.40;5.10;;;;;;;;;;5070015;28;20569;-77
2022/04/20 02:58:50;;;;;;;11.05;4.38;;;;;;;;;;5035534;28;20089;-78
2022/04/20 03:01:16;;;;;;;8.25;5.07;;;;;;;;;;5052545;28;20047;-79
2022/04/20 03:03:43;;;;;;;8.52;4.80;;;;;;;;;;5069914;28;20039;-78
2022/04/20 03:06:09;;;;;;;9.43;5.05;;;;;;;;;;5068992;28;20032;-79
2022/04/20 03:08:35;;;;;;;7.60;4.80;;;;;;;;;;5068978;28;20480;-78
2022/04/20 03:11:01;;;;;;;8.45;5.35;;;;;;;;;;5069179;28;20052;-78
2022/04/20 03:13:28;;;;;;;8.57;5.25;;;;;;;;;;5052613;28;20044;-78
2022/04/20 03:15:54;;;;;;;8.93;5.10;;;;;;;;;;5069105;28;20047;-78
2022/04/20 03:18:20;;;;;;;9.02;4.60;;;;;;;;;;5068454;28;20531;-79
2022/04/20 03:20:46;;;;;;;8.38;4.85;;;;;;;;;;5070466;28;20025;-76
2022/04/20 03:23:14;;;;;;;11.88;5.20;;;;;;;;;;5069079;28;20048;-76
2022/04/20 03:25:41;;;;;;;11.35;5.45;;;;;;;;;;5035401;28;20036;-75
2022/04/20 03:28:07;;;;;;;9.70;5.10;;;;;;;;;;5068565;28;20102;-76
2022/04/20 03:30:35;;;;;;;10.20;5.10;;;;;;;;;;5068010;28;20125;-75
2022/04/20 03:33:01;;;;;;;8.07;4.57;;;;;;;;;;5069752;28;20384;-78
2022/04/20 03:35:27;;;;;;;7.95;5.03;;;;;;;;;;5069621;28;20048;-78
2022/04/20 03:37:54;;;;;;;9.73;5.40;;;;;;;;;;5069829;28;20496;-78
2022/04/20 03:40:20;;;;;;;8.77;5.07;;;;;;;;;;5068817;28;20090;-78
2022/04/20 03:42:46;;;;;;;10.77;5.03;;;;;;;;;;5070042;28;20043;-78
2022/04/20 03:45:12;;;;;;;8.20;4.90;;;;;;;;;;5068031;28;20040;-76
2022/04/20 03:47:38;;;;;;;9.60;5.10;;;;;;;;;;5068053;28;20098;-78
2022/04/20 03:50:04;;;;;;;7.53;4.82;;;;;;;;;;5069097;28;20452;-79
2022/04/20 03:52:30;;;;;;;10.85;4.93;;;;;;;;;;5067381;28;20063;-78
2022/04/20 03:54:56;;;;;;;8.77;5.07;;;;;;;;;;5051393;28;20056;-78
2022/04/20 03:57:22;;;;;;;10.82;5.57;;;;;;;;;;5069252;28;20447;-76
2022/04/20 03:59:49;;;;;;;11.00;5.65;;;;;;;;;;5069061;28;20036;-79
2022/04/20 04:02:17;;;;;;;11.85;6.13;;;;;;;;;;5064948;28;20045;-79
2022/04/20 04:04:43;;;;;;;13.95;5.78;;;;;;;;;;5068736;28;20033;-76
2022/04/20 04:07:09;;;;;;;11.63;5.88;;;;;;;;;;5068057;28;20046;-76
2022/04/20 04:09:35;;;;;;;11.57;5.97;;;;;;;;;;5068438;28;20470;-79
2022/04/20 04:12:02;;;;;;;13.15;5.47;;;;;;;;;;5068229;28;20047;-79
2022/04/20 04:14:28;;;;;;;11.13;5.68;;;;;;;;;;5068146;28;20048;-79
2022/04/20 04:16:54;;;;;;;11.93;6.25;;;;;;;;;;5069396;28;20408;-79
2022/04/20 04:19:20;;;;;;;11.80;6.35;;;;;;;;;;5067930;28;20036;-79
2022/04/20 04:21:47;;;;;;;8.60;5.30;;;;;;;;;;5069318;28;20201;-79
2022/04/20 04:24:34;;;;;;;9.27;5.72;;;;;;;;;;5069452;28;20044;-79
2022/04/20 04:26:59;;;;;;;11.30;5.90;;;;;;;;;;5067927;28;20385;-79
2022/04/20 04:29:26;;;;;;;11.73;5.60;;;;;;;;;;5068965;28;20052;-79
2022/04/20 04:31:52;;;;;;;11.85;6.18;;;;;;;;;;5071788;28;20377;-79
2022/04/20 04:34:18;;;;;;;11.90;5.82;;;;;;;;;;5071887;28;20123;-79
2022/04/20 04:36:45;;;;;;;10.63;5.95;;;;;;;;;;5072968;28;20550;-79
2022/04/20 04:39:11;;;;;;;11.15;6.00;;;;;;;;;;5071806;28;20040;-79
2022/04/20 04:41:37;;;;;;;11.88;6.70;;;;;;;;;;5071392;28;20036;-78
2022/04/20 04:44:03;;;;;;;12.30;6.38;;;;;;;;;;5072545;28;20036;-78
2022/04/20 04:49:14;;;;;;;10.50;5.60;;;;;;;;;;5071515;28;20045;-79
2022/04/20 04:51:41;;;;;;;10.32;5.80;;;;;;;;;;5071175;28;20059;-79
2022/04/20 04:54:08;;;;;;;18.50;7.05;;;;;;;;;;5054919;28;20047;-79
2022/04/20 04:56:34;;;;;;;13.00;5.75;;;;;;;;;;5071104;28;20056;-79
2022/04/20 04:59:00;;;;;;;8.45;5.22;;;;;;;;;;5071454;28;20094;-79
2022/04/20 05:01:27;;;;;;;10.07;5.72;;;;;;;;;;5073472;28;20071;-79
2022/04/20 05:03:53;;;;;;;9.80;5.40;;;;;;;;;;5055995;28;20037;-79
2022/04/20 05:06:19;;;;;;;10.73;5.75;;;;;;;;;;5073252;28;20052;-79
2022/04/20 05:08:46;;;;;;;10.57;5.32;;;;;;;;;;5072958;28;20086;-78
2022/04/20 05:11:12;;;;;;;9.45;5.43;;;;;;;;;;5074408;28;20052;-78
2022/04/20 05:13:38;;;;;;;12.10;5.13;;;;;;;;;;5071725;28;20119;-78
2022/04/20 05:16:04;;;;;;;11.45;5.78;;;;;;;;;;5054938;28;20049;-79
2022/04/20 05:18:30;;;;;;;11.10;5.63;;;;;;;;;;5072489;28;20039;-79
2022/04/20 05:20:56;;;;;;;10.57;5.57;;;;;;;;;;5070807;28;20036;-79
2022/04/20 05:23:23;;;;;;;10.60;5.57;;;;;;;;;;5070737;28;20063;-79
2022/04/20 05:25:49;;;;;;;9.38;5.65;;;;;;;;;;5071156;28;20032;-80
2022/04/20 05:28:15;;;;;;;8.57;5.40;;;;;;;;;;5071119;28;20041;-79
2022/04/20 05:30:41;;;;;;;9.48;4.97;;;;;;;;;;5070574;28;20052;-80
2022/04/20 05:33:08;;;;;;;7.47;5.05;;;;;;;;;;5070403;28;20040;-79
2022/04/20 05:35:34;;;;;;;8.55;4.85;;;;;;;;;;5071680;28;20041;-78
2022/04/20 05:43:30;;;;;;;7.50;4.82;;;;;;;;;;5071683;28;20037;-78
2022/04/20 05:45:56;;;;;;;8.50;4.95;;;;;;;;;;5053886;28;20037;-78
2022/04/20 05:48:22;;;;;;;7.82;4.80;;;;;;;;;;5072045;28;20052;-77
2022/04/20 05:50:48;;;;;;;8.98;4.97;;;;;;;;;;5070254;28;20047;-78
2022/04/20 05:53:14;;;;;;;8.70;4.50;;;;;;;;;;5070180;28;20110;-79
2022/04/20 05:55:40;;;;;;;7.55;4.55;;;;;;;;;;5069877;28;20412;-79
2022/04/20 05:58:06;;;;;;;7.18;4.50;;;;;;;;;;5070270;28;20047;-79
2022/04/20 06:00:32;;;;;;;7.35;4.40;;;;;;;;;;5069835;28;20041;-77
2022/04/20 06:02:58;;;;;;;7.72;4.95;;;;;;;;;;5069490;28;20040;-77
2022/04/20 06:05:24;;;;;;;7.15;4.30;;;;;;;;;;5069647;28;20040;-76
2022/04/20 06:07:51;;;;;;;8.00;4.32;;;;;;;;;;5070053;28;20033;-78
2022/04/20 06:10:17;;;;;;;7.00;4.68;;;;;;;;;;5053292;28;20036;-81
2022/04/20 06:12:43;;;;;;;7.88;4.30;;;;;;;;;;5069726;28;20036;-80
2022/04/20 06:15:09;;;;;;;6.45;4.43;;;;;;;;;;5069810;28;20067;-80
2022/04/20 06:17:35;;;;;;;7.13;4.18;;;;;;;;;;5069548;28;20068;-78
2022/04/20 06:20:02;;;;;;;7.03;4.57;;;;;;;;;;5053344;28;20064;-77
2022/04/20 06:22:28;;;;;;;7.70;4.10;;;;;;;;;;5069624;28;20044;-77
2022/04/20 06:24:54;;;;;;;10.45;4.05;;;;;;;;;;5069549;28;20395;-79
2022/04/20 06:27:21;;;;;;;6.82;4.07;;;;;;;;;;5053441;28;20048;-77
2022/04/20 06:29:47;;;;;;;6.40;3.80;;;;;;;;;;5069596;28;20421;-77
2022/04/20 06:32:13;;;;;;;7.85;4.20;;;;;;;;;;5069965;28;20044;-78
2022/04/20 06:34:39;;;;;;;5.18;3.80;;;;;;;;;;5052699;28;20041;-78
2022/04/20 06:37:06;;;;;;;4.80;3.60;;;;;;;;;;5069531;28;20047;-78
2022/04/20 06:39:32;;;;;;;5.75;3.47;;;;;;;;;;5069749;28;20438;-79
2022/04/20 06:41:58;;;;;;;7.80;3.72;;;;;;;;;;5067017;28;20495;-77
2022/04/20 06:44:24;;;;;;;5.50;3.40;;;;;;;;;;5069637;28;20040;-80
2022/04/20 06:46:50;;;;;;;5.63;3.60;;;;;;;;;;5069552;28;20507;-79
2022/04/20 06:49:16;;;;;;;7.00;3.35;;;;;;;;;;5067630;28;20633;-79
2022/04/20 06:59:57;;;;;;;6.43;3.75;;;;;;;;;;5069078;28;20041;-77
2022/04/20 07:02:23;;;;;;;5.03;3.30;;;;;;;;;;5069859;28;20040;-76
2022/04/20 07:04:49;;;;;;;5.25;3.47;;;;;;;;;;5070203;28;20033;-79
2022/04/20 07:07:15;;;;;;;6.00;3.28;;;;;;;;;;5069357;28;20381;-76
2022/04/20 07:09:42;;;;;;;6.38;3.40;;;;;;;;;;5068870;28;20048;-76
2022/04/20 07:12:08;;;;;;;5.63;3.20;;;;;;;;;;5069469;28;20408;-74
2022/04/20 07:14:34;;;;;;;6.55;3.45;;;;;;;;;;5069080;28;20507;-73
2022/04/20 07:17:02;;;;;;;6.63;3.53;;;;;;;;;;5068770;28;20032;-75
2022/04/20 07:19:28;;;;;;;7.22;3.40;;;;;;;;;;5069862;28;20041;-77
2022/04/20 07:21:54;;;;;;;5.20;3.10;;;;;;;;;;5052271;28;20528;-77
2022/04/20 07:24:20;;;;;;;4.63;3.20;;;;;;;;;;5070125;28;20044;-78
2022/04/20 07:26:46;;;;;;;5.63;3.08;;;;;;;;;;5068548;28;20064;-75
2022/04/20 07:29:12;;;;;;;5.88;3.22;;;;;;;;;;5052067;28;20039;-76
2022/04/20 07:31:38;;;;;;;5.18;2.70;;;;;;;;;;5068569;28;20028;-77
2022/04/20 07:34:04;;;;;;;4.63;2.90;;;;;;;;;;5069231;28;20492;-77
2022/04/20 07:36:31;;;;;;;7.28;2.90;;;;;;;;;;5070104;28;20052;-77
2022/04/20 07:38:57;;;;;;;7.53;2.80;;;;;;;;;;5068533;28;20037;-77
2022/04/20 07:41:23;;;;;;;5.30;2.50;;;;;;;;;;5069718;28;20029;-77
2022/04/20 07:43:49;;;;;;;6.72;2.80;;;;;;;;;;5052132;28;20442;-76
2022/04/20 07:46:17;;;;;;;4.10;2.60;;;;;;;;;;5068906;28;20076;-76
2022/04/20 07:48:44;;;;;;;3.78;2.40;;;;;;;;;;5068380;28;20046;-78
2022/04/20 07:51:10;;;;;;;5.35;2.20;;;;;;;;;;5068731;28;20082;-74
2022/04/20 07:53:36;;;;;;;3.30;2.20;;;;;;;;;;5068434;28;20045;-75
2022/04/20 07:56:02;;;;;;;6.20;2.40;;;;;;;;;;5068219;28;20162;-79
2022/04/20 07:58:29;;;;;;;3.75;1.90;;;;;;;;;;5070048;28;20048;-81
2022/04/20 08:00:55;;;;;;;4.22;1.80;;;;;;;;;;5069733;28;20033;-80
2022/04/20 08:03:22;;;;;;;4.72;2.03;;;;;;;;;;5052403;28;20052;-79
2022/04/20 08:05:49;;;;;;;3.38;1.83;;;;;;;;;;5071894;28;20422;-79
2022/04/20 08:08:18;;;;;;;4.90;1.90;;;;;;;;;;5072969;28;20400;-82
2022/04/20 08:10:45;;;;;;;2.92;1.85;;;;;;;;;;5056488;28;20049;-82
2022/04/20 08:15:56;;;;;;;3.67;2.05;;;;;;;;;;5073543;28;20123;-81
2022/04/20 08:18:22;;;;;;;3.38;2.33;;;;;;;;;;5072970;28;20140;-77
2022/04/20 08:20:48;;;;;;;10.02;2.45;;;;;;;;;;5072193;28;20400;-75
2022/04/20 08:23:15;;;;;;;5.18;1.90;;;;;;;;;;5072096;28;20044;-77
2022/04/20 08:25:42;;;;;;;2.60;1.60;;;;;;;;;;5069762;28;20040;-76
2022/04/20 08:28:08;;;;;;;3.85;1.83;;;;;;;;;;5072362;28;20079;-75
2022/04/20 08:30:34;;;;;;;3.92;2.00;;;;;;;;;;5073837;28;20048;-76
2022/04/20 08:33:00;;;;;;;3.53;1.85;;;;;;;;;;5071885;28;20044;-77
2022/04/20 08:35:27;;;;;;;3.88;1.90;;;;;;;;;;5072446;28;20053;-75
2022/04/20 08:37:53;;;;;;;3.10;1.75;;;;;;;;;;5071774;28;20071;-75
2022/04/20 08:40:19;;;;;;;4.45;1.70;;;;;;;;;;5071953;28;20098;-75
2022/04/20 08:42:46;;;;;;;2.38;1.73;;;;;;;;;;5055188;28;20040;-75
2022/04/20 08:45:12;;;;;;;5.18;1.85;;;;;;;;;;5055520;28;20036;-75
2022/04/20 08:47:39;;;;;;;3.17;1.70;;;;;;;;;;5073775;28;20047;-75
2022/04/20 08:50:06;;;;;;;3.60;1.63;;;;;;;;;;5071915;28;20037;-75
2022/04/20 08:52:38;;;;;;;7.25;2.40;;;;;;;;;;5055654;28;20044;-75
2022/04/20 08:55:06;;;;;;;3.67;1.92;;;;;;;;;;5072289;28;20092;-77
2022/04/20 08:57:36;;;;;;;3.47;1.88;;;;;;;;;;5072766;28;20500;-79
2022/04/20 09:00:04;;;;;;;3.75;1.95;;;;;;;;;;5055709;28;20039;-75
2022/04/20 09:02:31;;;;;;;3.13;1.67;;;;;;;;;;5055424;28;20451;-75
2022/04/20 09:04:57;;;;;;;2.47;1.60;;;;;;;;;;5072806;28;20064;-76
2022/04/20 09:07:25;;;;;;;3.17;1.67;;;;;;;;;;5073424;28;20044;-76
2022/04/20 09:09:51;;;;;;;2.33;1.50;;;;;;;;;;5070256;28;20051;-72
2022/04/20 09:12:18;;;;;;;3.30;1.77;;;;;;;;;;5073152;28;20032;-76
2022/04/20 09:14:48;;;;;;;4.05;1.75;;;;;;;;;;5071543;28;20037;-71
2022/04/20 09:17:16;;;;;;;3.20;1.83;;;;;;;;;;5070113;28;20098;-73
2022/04/20 09:19:42;;;;;;;2.75;1.73;;;;;;;;;;5071802;28;20047;-80
2022/04/20 09:22:20;;;;;;;3.78;1.63;;;;;;;;;;5055884;28;20040;-80
2022/04/20 09:25:14;;;;;;;4.22;1.95;;;;;;;;;;5071531;28;20529;-83
2022/04/20 09:27:42;;;;;;;3.65;1.70;;;;;;;;;;5048065;28;20488;-85
2022/04/20 09:30:14;;;;;;;2.95;1.70;;;;;;;;;;5072306;28;20052;-77
2022/04/20 09:32:41;;;;;;;4.40;1.60;;;;;;;;;;5068382;28;20166;-74
2022/04/20 09:35:09;;;;;;;4.53;1.90;;;;;;;;;;5071083;28;20040;-74
2022/04/20 09:37:36;;;;;;;2.95;1.58;;;;;;;;;;5077830;28;20033;-76
2022/04/20 09:40:04;;;;;;;3.17;1.52;;;;;;;;;;5071135;28;20495;-73
2022/04/20 09:42:31;;;;;;;3.33;1.38;;;;;;;;;;5070886;28;20048;-75
2022/04/20 09:45:07;;;;;;;2.47;1.48;;;;;;;;;;5070803;28;20040;-76
2022/04/20 09:50:23;;;;;;;3.30;1.60;;;;;;;;;;5070717;28;20044;-76
2022/04/20 09:52:50;;;;;;;3.75;1.70;;;;;;;;;;5071620;28;20040;-75
2022/04/20 09:55:30;;;;;;;3.35;1.70;;;;;;;;;;5070853;28;20417;-79
2022/04/20 09:58:12;;;;;;;2.63;1.48;;;;;;;;;;5070416;28;20182;-80
2022/04/20 10:00:39;;;;;;;4.28;1.73;;;;;;;;;;5073391;28;20068;-82
2022/04/20 10:03:06;;;;;;;2.72;1.42;;;;;;;;;;5072976;28;20119;-80
2022/04/20 10:05:33;;;;;;;4.03;1.63;;;;;;;;;;5071692;28;20047;-82
2022/04/20 10:07:59;;;;;;;3.72;1.48;;;;;;;;;;5072437;28;20040;-81
2022/04/20 10:10:33;;;;;;;3.35;1.50;;;;;;;;;;5071929;28;20430;-81
2022/04/20 10:13:00;;;;;;;3.33;1.52;;;;;;;;;;5071774;28;20048;-75
2022/04/20 10:18:30;;;;;;;3.95;1.60;;;;;;;;;;5056173;28;20048;-76
2022/04/20 10:20:58;;;;;;;3.50;1.67;;;;;;;;;;5070292;28;20036;-76
2022/04/20 10:23:25;;;;;;;4.45;1.50;;;;;;;;;;5071652;28;20044;-75
2022/04/20 10:25:52;;;;;;;2.88;1.50;;;;;;;;;;5071285;28;20032;-82
2022/04/20 10:28:36;;;;;;;4.35;1.60;;;;;;;;;;5070755;28;20177;-80
2022/04/20 10:31:02;;;;;;;3.85;1.50;;;;;;;;;;5070822;28;20040;-81
2022/04/20 10:33:31;;;;;;;3.65;1.70;;;;;;;;;;5055392;28;20403;-78
2022/04/20 10:36:00;;;;;;;2.47;1.40;;;;;;;;;;5071456;28;20098;-83
2022/04/20 10:38:30;;;;;;;4.47;1.60;;;;;;;;;;5070583;28;20115;-79
2022/04/20 10:41:02;;;;;;;4.25;1.50;;;;;;;;;;5069963;28;20051;-75
2022/04/20 10:43:29;;;;;;;3.40;1.50;;;;;;;;;;5069432;28;20080;-77
2022/04/20 10:46:11;;;;;;;6.47;1.70;;;;;;;;;;5066971;28;20483;-73
2022/04/20 10:48:43;;;;;;;2.90;1.50;;;;;;;;;;5069443;28;20048;-76
2022/04/20 10:51:16;;;;;;;3.15;1.30;;;;;;;;;;5069321;28;20037;-74
2022/04/20 10:53:43;;;;;;;3.08;1.30;;;;;;;;;;5069241;28;20487;-73
2022/04/20 10:56:10;;;;;;;2.90;1.30;;;;;;;;;;5068950;28;20110;-73
2022/04/20 10:58:37;;;;;;;4.93;1.55;;;;;;;;;;5052628;28;20037;-78
2022/04/20 11:01:09;;;;;;;2.55;1.35;;;;;;;;;;5068811;28;20089;-81
2022/04/20 11:03:55;;;;;;;4.47;1.48;;;;;;;;;;5070123;28;20052;-81
2022/04/20 11:06:21;;;;;;;2.25;1.30;;;;;;;;;;5060913;28;20417;-79
2022/04/20 11:08:51;;;;;;;3.00;1.30;;;;;;;;;;5068576;28;20037;-79
2022/04/20 11:19:48;;;;;;;2.40;1.30;;;;;;;;;;5069666;28;20036;-79
2022/04/20 11:22:15;;;;;;;3.95;1.58;;;;;;;;;;5071069;28;20068;-75
2022/04/20 11:24:41;;;;;;;2.75;1.30;;;;;;;;;;5069082;28;20034;-76
2022/04/20 11:27:08;;;;;;;4.07;1.50;;;;;;;;;;5068943;28;20124;-74
2022/04/20 11:29:35;;;;;;;4.85;1.50;;;;;;;;;;5070516;28;20036;-77
2022/04/20 11:32:08;;;;;;;4.03;1.50;;;;;;;;;;5068784;28;20439;-73
2022/04/20 11:34:35;;;;;;;2.67;1.40;;;;;;;;;;5069091;28;20087;-76
2022/04/20 11:37:03;;;;;;;2.60;1.65;;;;;;;;;;5069844;28;20668;-83
2022/04/20 11:39:30;;;;;;;3.03;1.60;;;;;;;;;;5069246;28;20052;-83
2022/04/20 11:41:57;;;;;;;2.30;1.50;;;;;;;;;;5069396;28;20051;-80
2022/04/20 11:44:24;;;;;;;3.03;1.50;;;;;;;;;;5069809;28;20036;-79
2022/04/20 11:46:51;;;;;;;2.63;1.50;;;;;;;;;;5070049;28;20421;-79
2022/04/20 11:49:18;;;;;;;3.55;1.48;;;;;;;;;;5054031;28;20392;-84
2022/04/20 11:51:53;;;;;;;4.78;1.70;;;;;;;;;;5069587;28;20051;-81
2022/04/20 11:54:20;;;;;;;3.75;1.60;;;;;;;;;;5071134;28;20036;-82
2022/04/20 11:56:46;;;;;;;3.75;1.70;;;;;;;;;;5069363;28;20055;-81
2022/04/20 11:59:13;;;;;;;4.82;1.60;;;;;;;;;;5068911;28;20115;-82
2022/04/20 12:01:39;;;;;;;4.05;1.90;;;;;;;;;;5052582;28;20040;-76
2022/04/20 12:04:15;;;;;;;3.70;1.65;;;;;;;;;;5068380;28;20036;-80
2022/04/20 12:06:45;;;;;;;3.35;1.92;;;;;;;;;;5068276;28;20500;-81
2022/04/20 12:09:12;;;;;;;2.80;1.83;;;;;;;;;;5068827;28;20116;-83
2022/04/20 12:11:40;;;;;;;3.08;1.58;;;;;;;;;;5069996;28;20928;-83
2022/04/20 12:14:06;;;;;;;4.97;1.73;;;;;;;;;;5069490;28;20044;-79
2022/04/20 12:16:35;;;;;;;4.45;1.70;;;;;;;;;;5068511;28;20131;-78
2022/04/20 12:19:02;;;;;;;4.50;1.90;;;;;;;;;;5068042;28;20053;-82
2022/04/20 12:21:40;;;;;;;3.17;1.52;;;;;;;;;;5068413;28;20036;-83
2022/04/20 12:24:08;;;;;;;3.13;1.65;;;;;;;;;;5065369;28;20107;-77
2022/04/20 12:26:34;;;;;;;2.80;1.50;;;;;;;;;;5068105;28;20086;-81
2022/04/20 12:29:01;;;;;;;3.03;1.60;;;;;;;;;;5051677;28;20566;-80
2022/04/20 12:31:28;;;;;;;3.50;1.80;;;;;;;;;;5069594;28;20693;-78
2022/04/20 12:34:01;;;;;;;2.85;1.67;;;;;;;;;;5067465;28;20037;-77
2022/04/20 12:36:29;;;;;;;5.22;1.70;;;;;;;;;;5051452;28;20047;-78
2022/04/20 12:38:55;;;;;;;4.50;2.05;;;;;;;;;;5068298;28;20119;-79
2022/04/20 12:41:38;;;;;;;3.45;1.83;;;;;;;;;;5068636;28;20496;-81
2022/04/20 12:44:22;;;;;;;2.55;1.60;;;;;;;;;;5068470;28;20036;-82
2022/04/20 12:46:49;;;;;;;4.35;1.70;;;;;;;;;;5069511;28;20035;-83
2022/04/20 12:49:25;;;;;;;5.03;1.88;;;;;;;;;;5068614;28;20045;-80
2022/04/20 12:51:51;;;;;;;4.15;1.88;;;;;;;;;;5069765;28;20037;-80
2022/04/20 12:54:24;;;;;;;3.17;1.90;;;;;;;;;;5072562;28;20063;-82
2022/04/20 13:02:20;;;;;;;3.75;1.85;;;;;;;;;;5073200;28;20400;-79
2022/04/20 13:04:50;;;;;;;2.90;1.75;;;;;;;;;;5071186;28;20051;-79
2022/04/20 13:07:16;;;;;;;2.80;1.60;;;;;;;;;;5055126;28;20107;-79
2022/04/20 13:09:42;;;;;;;3.72;1.80;;;;;;;;;;5055048;28;20044;-81
2022/04/20 13:12:09;;;;;;;2.92;1.40;;;;;;;;;;5055504;28;20044;-84
2022/04/20 13:14:36;;;;;;;2.63;1.60;;;;;;;;;;5072414;28;20450;-81
2022/04/20 13:17:02;;;;;;;3.63;1.52;;;;;;;;;;5072240;28;20678;-83
2022/04/20 13:19:28;;;;;;;3.22;1.50;;;;;;;;;;5073667;28;20474;-80
2022/04/20 13:21:54;;;;;;;3.42;1.50;;;;;;;;;;5056111;28;20037;-81
2022/04/20 13:29:49;;;;;;;9.35;1.40;;;;;;;;;;5070950;28;20032;-73
2022/04/20 13:32:15;;;;;;;2.67;1.30;;;;;;;;;;5054114;28;20064;-73
2022/04/20 13:34:42;;;;;;;3.53;1.40;;;;;;;;;;5070650;28;20060;-75
2022/04/20 13:37:08;;;;;;;3.03;1.30;;;;;;;;;;5054544;28;20384;-76
2022/04/20 13:39:34;;;;;;;2.72;1.10;;;;;;;;;;5072145;28;20091;-75
2022/04/20 13:42:00;;;;;;;4.82;1.50;;;;;;;;;;5053603;28;20082;-74
2022/04/20 13:44:26;;;;;;;4.20;1.40;;;;;;;;;;5070143;28;20044;-74
2022/04/20 13:46:52;;;;;;;2.78;1.30;;;;;;;;;;5053753;28;20516;-75
2022/04/20 13:49:18;;;;;;;2.28;1.23;;;;;;;;;;5070274;28;20098;-74
2022/04/20 13:51:44;;;;;;;3.30;1.50;;;;;;;;;;5070454;28;20079;-74
2022/04/20 13:54:11;;;;;;;2.67;1.27;;;;;;;;;;5070354;28;20040;-75
2022/04/20 13:56:37;;;;;;;4.00;1.23;;;;;;;;;;5071285;28;20420;-74
2022/04/20 13:59:03;;;;;;;4.35;1.10;;;;;;;;;;5070557;28;20087;-75
2022/04/20 14:01:29;;;;;;;4.72;1.20;;;;;;;;;;5070486;28;20068;-74
2022/04/20 14:03:56;;;;;;;3.17;1.30;;;;;;;;;;5053539;28;20530;-82
2022/04/20 14:06:22;;;;;;;1.73;1.00;;;;;;;;;;5070680;28;20943;-82
2022/04/20 14:08:48;;;;;;;2.80;1.40;;;;;;;;;;5070283;28;20059;-81
2022/04/20 14:11:14;;;;;;;3.13;1.38;;;;;;;;;;5071707;28;20044;-79
2022/04/20 14:13:41;;;;;;;5.68;1.30;;;;;;;;;;5070587;28;20041;-75
2022/04/20 14:16:08;;;;;;;3.58;1.48;;;;;;;;;;5070080;28;20041;-74
2022/04/20 14:18:34;;;;;;;3.25;1.38;;;;;;;;;;5069977;28;20484;-73
2022/04/20 14:21:00;;;;;;;3.47;1.20;;;;;;;;;;5071358;28;20036;-73
2022/04/20 14:23:26;;;;;;;2.55;1.25;;;;;;;;;;5069910;28;20132;-74
2022/04/20 14:34:08;;;;;;;2.85;1.40;;;;;;;;;;5068228;28;20500;-74
2022/04/20 14:36:35;;;;;;;3.67;1.40;;;;;;;;;;5070789;28;20451;-74
2022/04/20 14:39:02;;;;;;;4.72;1.40;;;;;;;;;;5052415;28;20565;-74
2022/04/20 14:41:28;;;;;;;3.22;1.35;;;;;;;;;;5069499;28;20089;-73
2022/04/20 14:43:55;;;;;;;2.33;1.40;;;;;;;;;;5070581;28;20787;-74
2022/04/20 14:46:21;;;;;;;4.25;1.50;;;;;;;;;;5069333;28;20071;-74
2022/04/20 14:48:47;;;;;;;2.92;1.60;;;;;;;;;;5069210;28;20036;-74
2022/04/20 14:51:14;;;;;;;3.45;1.42;;;;;;;;;;5068882;28;20040;-78
2022/04/20 14:53:40;;;;;;;2.15;1.30;;;;;;;;;;5052580;28;20071;-75
2022/04/20 14:56:06;;;;;;;2.50;1.35;;;;;;;;;;5052322;28;20059;-75
2022/04/20 14:58:32;;;;;;;3.22;1.52;;;;;;;;;;5069172;28;20048;-75
2022/04/20 15:00:58;;;;;;;3.60;1.70;;;;;;;;;;5069197;28;20040;-74
2022/04/20 15:03:25;;;;;;;3.90;1.63;;;;;;;;;;5069134;28;20444;-72
2022/04/20 15:05:51;;;;;;;4.30;1.70;;;;;;;;;;5070576;28;20032;-81
2022/04/20 15:08:17;;;;;;;4.00;1.70;;;;;;;;;;5069823;28;20044;-81
2022/04/20 15:10:44;;;;;;;5.53;1.98;;;;;;;;;;5069739;28;20075;-80
2022/04/20 15:13:11;;;;;;;4.82;2.47;;;;;;;;;;5052783;28;20052;-79
2022/04/20 15:15:37;;;;;;;3.13;2.00;;;;;;;;;;5068267;28;20484;-81
2022/04/20 15:18:04;;;;;;;2.83;1.70;;;;;;;;;;5068488;28;20068;-79
2022/04/20 15:20:30;;;;;;;2.67;1.55;;;;;;;;;;5069877;28;20052;-79
2022/04/20 15:22:56;;;;;;;3.17;1.90;;;;;;;;;;5070990;28;20043;-83
2022/04/20 15:25:23;;;;;;;3.53;1.70;;;;;;;;;;5053946;28;20484;-83
2022/04/20 15:27:49;;;;;;;3.33;1.70;;;;;;;;;;5069710;28;20088;-80
2022/04/20 15:30:16;;;;;;;2.40;1.65;;;;;;;;;;5070060;28;20037;-74
2022/04/20 15:32:42;;;;;;;4.00;2.03;;;;;;;;;;5069428;28;20047;-75